Angel Fire, New Mexico
Current Conditions -  °F | °C
As of 7:50 PM on Monday 20 Oct 2014 (Local Time) from KAXX Reporting Station
Scattered Clouds Scattered Clouds  
Wind Chill:   Ceiling: Unl
Heat Index:   Visibility: 10mi
Dew Point:   Wind: 0mph
Humidity: 75%   Direction: NA
Pressure: 30.33"   Gusts: NA
Location:  36.39°N, 105.29°W
Report Text: KAXX 210150Z AUTO 00000KT 10SM SCT060 06/02 A3033 RMK AO2 T00580016
Loading
Personal Weather Stations






























Interactive Weather Map
Tropical Storm Tracking
New forecast layout! Learn more

10-Day Weather Forecast

Advertisements
Track Severe Weather on mobile